Terminal Aerodrome Forecast
Issued by NWS Green Bay, WI

Home | Current Version | Previous Version | Graphics & Text | Print | Product List | Glossary On
Versions: 1 2 3 4 5 6 7 8 9 10 11 12 13 14 15 16 17 18
000
FTUS43 KGRB 210944 AAA
TAFGRB
TAF AMD
KGRB 210944Z 2110/2206 01006KT 1 1/2SM BR SCT005 SCT012
      TEMPO 2110/2113 1/4SM FG BKN003
     FM211400 05009KT 6SM BR BKN008
     FM211500 11006KT P6SM SCT008 BKN020
     FM212200 11006KT P6SM BKN035
     FM220100 12005KT P6SM FEW040 SCT120=

USA.gov is the U.S. government's official web portal to all federal, state and local government web resources and services.